Gold Beach, OR

9:41 AM PDT on August 28, 2016 (GMT -0700)
MesoWest | | Change Station

Elev 16 ft 42.41 °N, 124.42 °W | Updated 42 minutes ago

Light Rain
Light Rain Fog
54 °F
Feels Like 54 °F
N
5
Wind Variable Wind from SSW
Gusts 0.0 mph

Today
High -- | Low -- °F
--% Chance of Precip.
Yesterday
High -- | Low -- °F
Precip. -- in
Pressure 30.11 in
Visibility 0.2 miles
Clouds Mostly Cloudy 200 ft
Overcast 600 ft
Dew Point 52 °F
Humidity 94%
Rainfall in
Snow Depth Not available.
6:38 AM 7:57 PM
Waning Crescent, 14% visible
SPECI KBOK 281637Z AUTO 00000KT 1/4SM -RA FG BKN002 OVC006 12/11 A3011 RMK AO2 RAE10B26 CIG 002V005 P0000
Pressure 30.11 in
Visibility 0.2 miles
Clouds Mostly Cloudy 200 ft
Overcast 600 ft
Dew Point 52 °F
Humidity 94%
Rainfall in
Snow Depth Not available.
6:38 AM 7:57 PM
Waning Crescent, 14% visible
SPECI KBOK 281637Z AUTO 00000KT 1/4SM -RA FG BKN002 OVC006 12/11 A3011 RMK AO2 RAE10B26 CIG 002V005 P0000

10-Day Weather Forecast

Almanac

Astronomy

Aug. 28, 2016 Rise Set
Actual Time
Civil Twilight
Nautical Twilight
Astronomical Twilight
Moon
Length of Visible Light
Length of Day
Tomorrow will be .
, % of the Moon is Illuminated

Today's Extremes

State Highs State Lows

Community

WunderPhotos

Upload Photos

1,935,627 photos uploaded!

WunderBlog® & News

Nearby

Air Quality

  Air Quality AQ Index Pollutant
Not available.

Snow Depth

Station Depth Elevation

Earthquake Activity

City Distance Mag. Time & Date
Minimum magnitude displayed is 2.5.

Coastal Water Temperatures

Place Temperature

Stations

Nearby Weather Stations

Station Location Temp. Windchill Dew Point Humidity Wind Precip. Elev Updated Type
                   

Watches & Warnings

There are currently no watches in effect.